createdAt,value
2019-01-08T00:02:08.579Z,0.80
2019-01-08T00:04:37.682Z,0.80
2019-01-08T00:07:07.071Z,0.80
2019-01-08T00:09:36.168Z,0.80
2019-01-08T00:12:05.876Z,0.80
2019-01-08T00:14:34.966Z,0.80
2019-01-08T00:17:04.618Z,0.80
2019-01-08T00:19:33.790Z,0.80
2019-01-08T00:22:02.934Z,0.80
2019-01-08T00:24:32.571Z,0.80
2019-01-08T00:27:01.995Z,0.80
2019-01-08T00:29:31.627Z,0.90
2019-01-08T00:32:01.026Z,0.90
2019-01-08T00:34:30.451Z,0.80
2019-01-08T00:36:59.851Z,0.80
2019-01-08T00:39:29.236Z,0.80
2019-01-08T00:41:58.899Z,0.90
2019-01-08T00:44:28.518Z,0.80
2019-01-08T00:46:57.791Z,0.80
2019-01-08T00:49:27.154Z,0.80
2019-01-08T00:51:56.546Z,0.80
2019-01-08T00:54:25.648Z,0.80
2019-01-08T00:56:55.036Z,0.80
2019-01-08T00:59:24.402Z,0.90
2019-01-08T01:01:53.796Z,0.90
2019-01-08T01:04:23.463Z,0.90
2019-01-08T01:06:53.191Z,0.90
2019-01-08T01:09:22.567Z,0.90
2019-01-08T01:11:51.967Z,0.90
2019-01-08T01:14:21.054Z,0.90
2019-01-08T01:16:50.267Z,0.90
2019-01-08T01:19:19.368Z,1.00
2019-01-08T01:21:48.572Z,0.90
2019-01-08T01:24:17.660Z,1.00
2019-01-08T01:26:47.056Z,1.00
2019-01-08T01:29:16.162Z,1.00
2019-01-08T01:31:45.367Z,1.00
2019-01-08T01:34:14.470Z,1.00
2019-01-08T01:36:43.595Z,1.00
2019-01-08T01:39:12.719Z,1.10
2019-01-08T01:41:42.119Z,1.10
2019-01-08T01:44:11.214Z,1.10
2019-01-08T01:46:40.603Z,1.10
2019-01-08T01:49:09.963Z,1.10
2019-01-08T01:51:39.090Z,1.10
2019-01-08T01:54:08.454Z,1.20
2019-01-08T01:56:38.528Z,1.10
2019-01-08T01:59:08.592Z,1.10
2019-01-08T02:01:37.926Z,1.10
2019-01-08T02:04:07.044Z,1.10
2019-01-08T02:06:36.442Z,1.10
2019-01-08T02:09:06.767Z,1.10
2019-01-08T02:11:36.301Z,1.10
2019-01-08T02:14:05.726Z,1.10
2019-01-08T02:16:34.820Z,1.20
2019-01-08T02:19:03.947Z,1.20
2019-01-08T02:21:33.299Z,1.20
2019-01-08T02:24:02.444Z,1.20
2019-01-08T02:26:31.675Z,1.20
2019-01-08T02:29:01.118Z,1.20
2019-01-08T02:31:30.271Z,1.20
2019-01-08T02:33:59.650Z,1.20
2019-01-08T02:36:28.802Z,1.20
2019-01-08T02:38:57.992Z,1.20
2019-01-08T02:41:27.702Z,1.20
2019-01-08T02:43:56.983Z,1.20
2019-01-08T02:46:27.042Z,1.20
2019-01-08T02:48:56.495Z,1.20
2019-01-08T02:51:25.911Z,1.20
2019-01-08T02:53:55.030Z,1.30
2019-01-08T02:56:24.699Z,1.20
2019-01-08T02:58:53.811Z,1.30
2019-01-08T03:01:22.958Z,1.40
2019-01-08T03:03:52.334Z,1.30
2019-01-08T03:06:21.483Z,1.30
2019-01-08T03:08:51.137Z,1.40
2019-01-08T03:11:20.286Z,1.40
2019-01-08T03:13:49.659Z,1.40
2019-01-08T03:16:18.887Z,1.40
2019-01-08T03:18:48.270Z,1.40
2019-01-08T03:21:17.688Z,1.40
2019-01-08T03:23:46.835Z,1.40
2019-01-08T03:26:16.083Z,1.30
2019-01-08T03:28:46.008Z,1.40
2019-01-08T03:31:15.230Z,1.30
2019-01-08T03:33:44.678Z,1.40
2019-01-08T03:36:14.148Z,1.40
2019-01-08T03:38:43.602Z,1.50
2019-01-08T03:41:13.031Z,1.50
2019-01-08T03:43:42.139Z,1.50
2019-01-08T03:46:11.453Z,1.50
2019-01-08T03:48:41.496Z,1.60
2019-01-08T03:51:10.917Z,1.60
2019-01-08T03:53:40.379Z,1.70
2019-01-08T03:56:09.523Z,1.70
2019-01-08T03:58:38.963Z,1.70
2019-01-08T04:01:08.379Z,1.70
2019-01-08T04:03:37.769Z,1.80
2019-01-08T04:06:07.278Z,1.80
2019-01-08T04:08:36.407Z,1.70
2019-01-08T04:11:05.559Z,1.70
2019-01-08T04:13:34.927Z,1.70
2019-01-08T04:16:04.347Z,1.70
2019-01-08T04:18:33.467Z,1.70
2019-01-08T04:21:02.616Z,1.60
2019-01-08T04:23:32.308Z,1.60
2019-01-08T04:26:01.714Z,1.60
2019-01-08T04:28:30.822Z,1.60
2019-01-08T04:31:00.215Z,1.50
2019-01-08T04:33:29.623Z,1.50
2019-01-08T04:35:59.287Z,1.50
2019-01-08T04:38:28.699Z,1.50
2019-01-08T04:40:57.820Z,1.40
2019-01-08T04:43:27.046Z,1.40
2019-01-08T04:45:56.159Z,1.40
2019-01-08T04:48:25.306Z,1.40
2019-01-08T04:50:54.811Z,1.40
2019-01-08T04:53:24.751Z,1.40
2019-01-08T04:55:53.867Z,1.50
2019-01-08T04:58:23.024Z,1.50
2019-01-08T05:00:52.407Z,1.40
2019-01-08T05:03:21.627Z,1.50
2019-01-08T05:05:51.018Z,1.40
2019-01-08T05:08:20.435Z,1.40
2019-01-08T05:10:49.818Z,1.40
2019-01-08T05:13:19.507Z,1.40
2019-01-08T05:15:48.887Z,1.40
2019-01-08T05:18:18.054Z,1.40
2019-01-08T05:20:47.430Z,1.40
2019-01-08T05:23:17.387Z,1.40
2019-01-08T05:25:46.788Z,1.50
2019-01-08T05:28:15.935Z,1.50
2019-01-08T05:30:45.581Z,1.50
2019-01-08T05:33:15.403Z,1.50
2019-01-08T05:35:45.094Z,1.50
2019-01-08T05:38:14.791Z,1.50
2019-01-08T05:40:43.984Z,1.50
2019-01-08T05:43:13.278Z,1.50
2019-01-08T05:45:42.944Z,1.50
2019-01-08T05:48:12.367Z,1.50
2019-01-08T05:50:41.486Z,1.50
2019-01-08T05:53:10.639Z,1.50
2019-01-08T05:55:40.024Z,1.50
2019-01-08T05:58:09.251Z,1.50
2019-01-08T06:00:38.439Z,1.50
2019-01-08T06:03:08.115Z,1.50
2019-01-08T06:05:37.578Z,1.50
2019-01-08T06:08:06.719Z,1.50
2019-01-08T06:10:36.132Z,1.50
2019-01-08T06:13:05.278Z,1.50
2019-01-08T06:15:34.919Z,1.60
2019-01-08T06:18:04.331Z,1.60
2019-01-08T06:20:33.971Z,1.60
2019-01-08T06:23:03.129Z,1.60
2019-01-08T06:25:32.500Z,1.60
2019-01-08T06:28:01.915Z,1.70
2019-01-08T06:30:31.034Z,1.90
2019-01-08T06:33:00.456Z,1.90
2019-01-08T06:35:30.111Z,1.90
2019-01-08T06:37:59.606Z,1.80
2019-01-08T06:40:28.718Z,1.80
2019-01-08T06:42:58.418Z,1.70
2019-01-08T06:45:27.527Z,1.70
2019-01-08T06:47:56.951Z,1.60
2019-01-08T06:50:26.591Z,1.70
2019-01-08T06:52:56.077Z,1.70
2019-01-08T06:55:25.522Z,1.70
2019-01-08T06:57:55.023Z,1.70
2019-01-08T07:00:24.207Z,1.70
2019-01-08T07:02:53.351Z,1.70
2019-01-08T07:05:23.058Z,1.70
2019-01-08T07:07:52.175Z,1.70
2019-01-08T07:10:21.359Z,1.70
2019-01-08T07:12:50.746Z,1.70
2019-01-08T07:15:20.428Z,1.70
2019-01-08T07:17:49.543Z,1.70
2019-01-08T07:20:18.702Z,1.70
2019-01-08T07:22:47.815Z,1.70
2019-01-08T07:25:16.958Z,1.80
2019-01-08T07:27:46.352Z,1.80
2019-01-08T07:30:15.771Z,1.90
2019-01-08T07:32:45.270Z,2.00
2019-01-08T07:35:14.677Z,1.90
2019-01-08T07:37:44.131Z,1.90
2019-01-08T07:40:13.562Z,1.90
2019-01-08T07:42:42.677Z,1.90
2019-01-08T07:45:12.096Z,1.90
2019-01-08T07:47:41.211Z,1.90
2019-01-08T07:50:11.034Z,1.90
2019-01-08T07:52:40.151Z,1.90
2019-01-08T07:55:09.878Z,1.90
2019-01-08T07:57:38.999Z,1.90
2019-01-08T08:00:08.306Z,1.90
2019-01-08T08:02:37.953Z,1.90
2019-01-08T08:05:07.636Z,1.90
2019-01-08T08:07:36.759Z,2.00
2019-01-08T08:10:07.243Z,2.00
2019-01-08T08:12:36.355Z,2.00
2019-01-08T08:15:05.702Z,2.00
2019-01-08T08:17:34.823Z,2.00
2019-01-08T08:20:04.590Z,2.00
2019-01-08T08:22:34.339Z,2.00
2019-01-08T08:25:03.485Z,2.10
2019-01-08T08:27:32.929Z,2.10
2019-01-08T08:30:02.355Z,2.10
2019-01-08T08:32:32.062Z,2.10
2019-01-08T08:35:08.195Z,2.10
2019-01-08T08:37:32.375Z,2.10
2019-01-08T08:40:01.802Z,2.00
2019-01-08T08:42:31.591Z,2.00
2019-01-08T08:45:01.091Z,2.00
2019-01-08T08:47:31.019Z,2.00
2019-01-08T08:50:00.502Z,2.00
2019-01-08T08:52:29.939Z,2.00
2019-01-08T08:54:59.632Z,2.00
2019-01-08T08:57:28.743Z,2.00
2019-01-08T08:59:58.455Z,2.00
2019-01-08T09:02:27.887Z,2.00
2019-01-08T09:04:57.586Z,2.00
2019-01-08T09:07:27.242Z,2.00
2019-01-08T09:09:56.392Z,2.00
2019-01-08T09:12:25.502Z,2.00
2019-01-08T09:14:54.665Z,2.00
2019-01-08T09:17:23.787Z,2.10
2019-01-08T09:19:53.266Z,2.10
2019-01-08T09:22:22.646Z,2.10
2019-01-08T09:24:52.339Z,2.20
2019-01-08T09:27:21.450Z,2.10
2019-01-08T09:29:51.138Z,2.20
2019-01-08T09:32:20.251Z,2.30
2019-01-08T09:34:49.386Z,2.30
2019-01-08T09:37:18.847Z,2.30
2019-01-08T09:39:48.304Z,2.30
2019-01-08T09:42:17.719Z,2.30
2019-01-08T09:44:47.111Z,2.30
2019-01-08T09:47:16.259Z,2.30
2019-01-08T09:49:45.639Z,2.40
2019-01-08T09:52:15.051Z,2.40
2019-01-08T09:54:44.708Z,2.50
2019-01-08T09:57:14.451Z,2.60
2019-01-08T09:59:44.150Z,2.70
2019-01-08T10:02:13.575Z,2.80
2019-01-08T10:04:42.698Z,2.90
2019-01-08T10:07:11.847Z,3.00
2019-01-08T10:09:40.975Z,3.20
2019-01-08T10:12:10.968Z,3.30
2019-01-08T10:14:40.357Z,3.40
2019-01-08T10:17:09.586Z,3.50
2019-01-08T10:19:39.038Z,3.60
2019-01-08T10:22:08.206Z,3.60
2019-01-08T10:24:37.858Z,3.50
2019-01-08T10:27:07.072Z,3.50
2019-01-08T10:29:36.183Z,3.50
2019-01-08T10:32:05.334Z,3.50
2019-01-08T10:34:34.789Z,3.60
2019-01-08T10:37:04.203Z,3.60
2019-01-08T10:39:33.324Z,3.60
2019-01-08T10:42:02.802Z,3.70
2019-01-08T10:44:32.846Z,3.70
2019-01-08T10:47:02.253Z,3.80
2019-01-08T10:49:31.631Z,3.80
2019-01-08T10:52:02.355Z,3.90
2019-01-08T10:54:31.909Z,3.90
2019-01-08T10:57:01.127Z,4.00
2019-01-08T10:59:30.247Z,4.00
2019-01-08T11:01:59.399Z,4.00
2019-01-08T11:04:28.779Z,4.00
2019-01-08T11:06:57.923Z,4.10
2019-01-08T11:09:27.315Z,4.10
2019-01-08T11:11:56.772Z,4.20
2019-01-08T11:14:25.922Z,4.20
2019-01-08T11:16:55.071Z,4.20
2019-01-08T11:19:24.450Z,4.20
2019-01-08T11:21:53.870Z,4.20
2019-01-08T11:24:23.251Z,4.20
2019-01-08T11:26:53.119Z,4.20
2019-01-08T11:29:22.238Z,4.20
2019-01-08T11:31:51.658Z,4.20
2019-01-08T11:34:20.771Z,4.20
2019-01-08T11:36:50.462Z,4.30
2019-01-08T11:39:20.143Z,4.30
2019-01-08T11:41:50.088Z,4.40
2019-01-08T11:44:19.216Z,4.50
2019-01-08T11:46:48.354Z,4.50
2019-01-08T11:49:17.735Z,4.50
2019-01-08T11:51:46.887Z,4.60
2019-01-08T11:54:16.261Z,4.70
2019-01-08T11:56:45.495Z,4.70
2019-01-08T11:59:15.150Z,4.70
2019-01-08T12:01:44.843Z,4.70
2019-01-08T12:04:14.228Z,4.80
2019-01-08T12:06:43.703Z,4.80
2019-01-08T12:09:12.814Z,4.80
2019-01-08T12:11:42.249Z,4.80
2019-01-08T12:14:11.903Z,4.70
2019-01-08T12:16:41.312Z,4.70
2019-01-08T12:19:10.726Z,4.70
2019-01-08T12:21:40.115Z,4.70
2019-01-08T12:24:09.523Z,4.70
2019-01-08T12:26:38.942Z,4.70
2019-01-08T12:29:08.348Z,4.70
2019-01-08T12:31:37.730Z,4.70
2019-01-08T12:34:07.167Z,4.70
2019-01-08T12:36:36.273Z,4.70
2019-01-08T12:39:07.368Z,4.70
2019-01-08T12:41:36.770Z,4.70
2019-01-08T12:44:06.199Z,4.70
2019-01-08T12:46:35.917Z,4.70
2019-01-08T12:49:05.646Z,4.70
2019-01-08T12:51:34.771Z,4.60
2019-01-08T12:54:03.929Z,4.60
2019-01-08T12:56:33.331Z,4.70
2019-01-08T12:59:02.760Z,4.60
2019-01-08T13:01:32.215Z,4.70
2019-01-08T13:04:01.668Z,4.70
2019-01-08T13:06:31.052Z,4.70
2019-01-08T13:09:00.473Z,4.70
2019-01-08T13:11:30.132Z,4.80
2019-01-08T13:13:59.620Z,4.80
2019-01-08T13:16:28.738Z,4.80
2019-01-08T13:18:58.166Z,4.70
2019-01-08T13:21:27.282Z,4.60
2019-01-08T13:23:56.440Z,4.60
2019-01-08T13:26:25.830Z,4.50
2019-01-08T13:28:55.243Z,4.50
2019-01-08T13:31:24.631Z,4.40
2019-01-08T13:33:53.775Z,4.40
2019-01-08T13:36:23.179Z,4.30
2019-01-08T13:38:52.940Z,4.30
2019-01-08T13:41:22.718Z,4.30
2019-01-08T13:43:52.206Z,4.30
2019-01-08T13:46:21.600Z,4.30
2019-01-08T13:48:51.631Z,4.20
2019-01-08T13:51:20.781Z,4.20
2019-01-08T13:53:49.930Z,4.30
2019-01-08T13:56:19.329Z,4.20
2019-01-08T13:58:49.516Z,4.20
2019-01-08T14:01:19.035Z,4.10
2019-01-08T14:03:48.442Z,4.10
2019-01-08T14:06:17.839Z,4.10
2019-01-08T14:08:47.007Z,4.00
2019-01-08T14:11:16.134Z,4.00
2019-01-08T14:13:45.831Z,3.90
2019-01-08T14:16:15.315Z,3.90
2019-01-08T14:18:44.467Z,3.80
2019-01-08T14:21:13.583Z,3.80
2019-01-08T14:23:43.102Z,3.80
2019-01-08T14:26:12.579Z,3.80
2019-01-08T14:28:41.978Z,3.70
2019-01-08T14:31:12.188Z,3.70
2019-01-08T14:33:41.799Z,3.60
2019-01-08T14:36:11.723Z,3.60
2019-01-08T14:38:41.143Z,3.60
2019-01-08T14:41:11.067Z,3.50
2019-01-08T14:43:40.219Z,3.50
2019-01-08T14:46:09.607Z,3.50
2019-01-08T14:48:39.025Z,3.60
2019-01-08T14:51:08.410Z,3.50
2019-01-08T14:53:37.817Z,3.50
2019-01-08T14:56:07.475Z,3.50
2019-01-08T14:58:36.895Z,3.60
2019-01-08T15:01:06.283Z,3.60
2019-01-08T15:03:35.694Z,3.60
2019-01-08T15:06:05.080Z,3.60
2019-01-08T15:08:34.768Z,3.50
2019-01-08T15:11:04.150Z,3.40
2019-01-08T15:13:33.310Z,3.40
2019-01-08T15:16:02.972Z,3.40
2019-01-08T15:18:32.118Z,3.40
2019-01-08T15:21:01.765Z,3.40
2019-01-08T15:23:31.175Z,3.40
2019-01-08T15:26:00.294Z,3.30
2019-01-08T15:28:29.967Z,3.30
2019-01-08T15:30:59.345Z,3.30
2019-01-08T15:33:28.767Z,3.30
2019-01-08T15:35:57.971Z,3.20
2019-01-08T15:38:27.416Z,3.10
2019-01-08T15:40:57.391Z,3.10
2019-01-08T15:43:26.535Z,3.10
2019-01-08T15:45:55.919Z,3.10
2019-01-08T15:48:25.066Z,3.10
2019-01-08T15:50:54.172Z,3.10
2019-01-08T15:53:23.608Z,3.10
2019-01-08T15:55:52.718Z,3.10
2019-01-08T15:58:22.135Z,3.00
2019-01-08T16:00:51.327Z,3.10
2019-01-08T16:03:21.003Z,3.00
2019-01-08T16:05:50.123Z,3.00
2019-01-08T16:08:19.443Z,3.00
2019-01-08T16:10:48.591Z,3.00
2019-01-08T16:13:18.247Z,3.00
2019-01-08T16:15:47.507Z,3.00
2019-01-08T16:18:16.618Z,3.00
2019-01-08T16:20:45.774Z,3.00
2019-01-08T16:23:15.700Z,2.90
2019-01-08T16:25:44.868Z,2.90
2019-01-08T16:28:13.975Z,2.90
2019-01-08T16:30:43.172Z,2.90
2019-01-08T16:33:16.229Z,3.00
2019-01-08T16:35:44.234Z,3.00
2019-01-08T16:38:13.618Z,3.00
2019-01-08T16:40:43.118Z,3.00
2019-01-08T16:43:12.852Z,3.00
2019-01-08T16:45:42.360Z,3.10
2019-01-08T16:48:11.744Z,3.10
2019-01-08T16:50:41.455Z,3.10
2019-01-08T16:53:10.671Z,3.10
2019-01-08T16:55:39.779Z,3.20
2019-01-08T16:58:09.199Z,3.20
2019-01-08T17:00:38.577Z,3.20
2019-01-08T17:03:07.752Z,3.20
2019-01-08T17:05:37.147Z,3.20
2019-01-08T17:08:06.616Z,3.20
2019-01-08T17:10:37.650Z,3.20
2019-01-08T17:13:07.027Z,3.20
2019-01-08T17:15:36.679Z,3.30
2019-01-08T17:18:06.130Z,3.20
2019-01-08T17:20:35.846Z,3.20
2019-01-08T17:23:05.326Z,3.20
2019-01-08T17:25:34.983Z,3.20
2019-01-08T17:28:04.447Z,3.30
2019-01-08T17:30:33.638Z,3.20
2019-01-08T17:33:03.415Z,3.30
2019-01-08T17:35:32.530Z,3.30
2019-01-08T17:38:02.275Z,3.30
2019-01-08T17:40:31.391Z,3.20
2019-01-08T17:43:01.231Z,3.30
2019-01-08T17:45:30.348Z,3.30
2019-01-08T17:48:00.162Z,3.30
2019-01-08T17:50:29.287Z,3.30
2019-01-08T17:52:58.619Z,3.30
2019-01-08T17:55:28.060Z,3.30
2019-01-08T17:58:34.252Z,3.20
2019-01-08T18:01:09.847Z,3.20
2019-01-08T18:03:42.728Z,3.30
2019-01-08T18:06:10.723Z,3.30
2019-01-08T18:08:40.618Z,3.30
2019-01-08T18:11:10.264Z,3.30
2019-01-08T18:13:40.028Z,3.30
2019-01-08T18:16:09.771Z,3.30
2019-01-08T18:18:39.079Z,3.30
2019-01-08T18:21:08.807Z,3.30
2019-01-08T18:23:38.039Z,3.20
2019-01-08T18:26:07.516Z,3.20
2019-01-08T18:28:36.743Z,3.20
2019-01-08T18:31:06.203Z,3.10
2019-01-08T18:33:35.694Z,3.10
2019-01-08T18:36:05.107Z,3.10
2019-01-08T18:38:34.335Z,3.20
2019-01-08T18:41:03.790Z,3.20
2019-01-08T18:43:33.007Z,3.20
2019-01-08T18:46:02.390Z,3.20
2019-01-08T18:48:31.859Z,3.20
2019-01-08T18:51:01.238Z,3.10
2019-01-08T18:53:30.734Z,3.10
2019-01-08T18:56:00.134Z,3.10
2019-01-08T18:58:29.636Z,3.10
2019-01-08T19:00:59.352Z,3.10
2019-01-08T19:03:29.487Z,3.10
2019-01-08T19:05:58.679Z,3.10
2019-01-08T19:09:10.250Z,3.20
2019-01-08T19:11:39.743Z,3.10
2019-01-08T19:14:08.966Z,3.20
2019-01-08T19:16:39.030Z,3.10
2019-01-08T19:19:08.598Z,3.10
2019-01-08T19:21:38.051Z,3.10
2019-01-08T19:24:07.279Z,3.10
2019-01-08T19:26:36.675Z,3.10
2019-01-08T19:29:05.942Z,3.10
2019-01-08T19:31:35.082Z,3.10
2019-01-08T19:34:09.360Z,3.10
2019-01-08T19:36:35.767Z,3.10
2019-01-08T19:39:07.246Z,3.10
2019-01-08T19:41:36.986Z,3.10
2019-01-08T19:44:06.518Z,3.10
2019-01-08T19:46:36.171Z,3.10
2019-01-08T19:49:05.983Z,3.10
2019-01-08T19:51:35.098Z,3.10
2019-01-08T19:54:04.294Z,3.20
2019-01-08T19:56:33.494Z,3.20
2019-01-08T19:59:03.236Z,3.20
2019-01-08T20:01:32.356Z,3.20
2019-01-08T20:04:03.598Z,3.30
2019-01-08T20:06:33.109Z,3.20
2019-01-08T20:09:03.560Z,3.30
2019-01-08T20:11:33.210Z,3.30
2019-01-08T20:14:02.687Z,3.30
2019-01-08T20:16:31.904Z,3.30
2019-01-08T20:19:01.399Z,3.30
2019-01-08T20:21:30.790Z,3.40
2019-01-08T20:24:06.279Z,3.40
2019-01-08T20:26:32.231Z,3.40
2019-01-08T20:29:01.418Z,3.30
2019-01-08T20:31:30.538Z,3.30
2019-01-08T20:33:59.734Z,3.30
2019-01-08T20:36:28.858Z,3.30
2019-01-08T20:38:58.576Z,3.40
2019-01-08T20:41:27.716Z,3.30
2019-01-08T20:43:56.887Z,3.30
2019-01-08T20:46:26.273Z,3.30
2019-01-08T20:48:55.709Z,3.30
2019-01-08T20:51:25.644Z,3.30
2019-01-08T20:53:54.816Z,3.30
2019-01-08T20:56:23.930Z,3.30
2019-01-08T20:58:53.517Z,3.20
2019-01-08T21:01:22.906Z,3.30
2019-01-08T21:03:52.332Z,3.30
2019-01-08T21:06:21.855Z,3.30
2019-01-08T21:08:51.283Z,3.30
2019-01-08T21:11:20.814Z,3.30
2019-01-08T21:13:50.084Z,3.30
2019-01-08T21:16:20.046Z,3.20
2019-01-08T21:18:49.788Z,3.20
2019-01-08T21:21:19.438Z,3.20
2019-01-08T21:23:48.872Z,3.10
2019-01-08T21:26:18.247Z,3.00
2019-01-08T21:28:47.403Z,3.00
2019-01-08T21:31:16.779Z,2.90
2019-01-08T21:33:46.489Z,2.90
2019-01-08T21:36:15.863Z,2.80
2019-01-08T21:38:45.302Z,2.80
2019-01-08T21:41:14.975Z,2.80
2019-01-08T21:43:44.451Z,2.80
2019-01-08T21:46:13.855Z,2.80
2019-01-08T21:48:43.239Z,2.80
2019-01-08T21:51:12.858Z,2.70
2019-01-08T21:53:42.271Z,2.70
2019-01-08T21:56:11.699Z,2.70
2019-01-08T21:58:40.851Z,2.70
2019-01-08T22:01:10.279Z,2.70
2019-01-08T22:03:39.399Z,2.60
2019-01-08T22:06:09.134Z,2.70
2019-01-08T22:08:38.258Z,2.60
2019-01-08T22:11:07.707Z,2.70
2019-01-08T22:13:37.360Z,2.70
2019-01-08T22:16:06.804Z,2.70
2019-01-08T22:18:36.443Z,2.70
2019-01-08T22:21:05.599Z,2.70
2019-01-08T22:23:35.059Z,2.70
2019-01-08T22:26:04.211Z,2.70
2019-01-08T22:28:33.862Z,2.70
2019-01-08T22:31:03.559Z,2.70
2019-01-08T22:33:32.674Z,2.70
2019-01-08T22:36:01.826Z,2.70
2019-01-08T22:38:31.215Z,2.70
2019-01-08T22:41:00.946Z,2.70
2019-01-08T22:43:30.075Z,2.70
2019-01-08T22:45:59.226Z,2.60
2019-01-08T22:48:28.342Z,2.60
2019-01-08T22:50:57.758Z,2.60
2019-01-08T22:53:27.151Z,2.60
2019-01-08T22:55:56.599Z,2.60
2019-01-08T22:58:25.723Z,2.70
2019-01-08T23:01:11.083Z,2.70
2019-01-08T23:03:40.735Z,2.70
2019-01-08T23:06:09.968Z,2.70
2019-01-08T23:08:39.373Z,2.70
2019-01-08T23:11:09.238Z,2.70
2019-01-08T23:13:38.364Z,2.60
2019-01-08T23:16:07.528Z,2.60
2019-01-08T23:18:37.179Z,2.60
2019-01-08T23:21:06.870Z,2.60
2019-01-08T23:23:35.999Z,2.60
2019-01-08T23:26:05.165Z,2.50
2019-01-08T23:28:34.554Z,2.50
2019-01-08T23:31:03.702Z,2.50
2019-01-08T23:33:33.356Z,2.50
2019-01-08T23:36:02.516Z,2.60
2019-01-08T23:38:31.908Z,2.60
2019-01-08T23:41:01.147Z,2.70
2019-01-08T23:43:30.536Z,2.70
2019-01-08T23:45:59.954Z,2.60
2019-01-08T23:48:29.071Z,2.50
2019-01-08T23:50:58.754Z,2.50
2019-01-08T23:53:32.598Z,2.40
2019-01-08T23:56:05.505Z,2.30
2019-01-08T23:58:34.620Z,2.10
